sensor_id;sensor_type;location;lat;lon;timestamp;pressure;altitude;pressure_sealevel;temperature;humidity
42771;BME280;28426;42.872;25.314;2023-03-23T00:00:27;96935.97;;;5.69;98.77
42771;BME280;28426;42.872;25.314;2023-03-23T00:03:00;96940.28;;;5.70;98.75
42771;BME280;28426;42.872;25.314;2023-03-23T00:05:31;96940.81;;;5.74;100.00
42771;BME280;28426;42.872;25.314;2023-03-23T00:08:04;96926.56;;;5.75;100.00
42771;BME280;28426;42.872;25.314;2023-03-23T00:10:36;96942.69;;;5.90;100.00
42771;BME280;28426;42.872;25.314;2023-03-23T00:13:07;96936.91;;;5.95;100.00
42771;BME280;28426;42.872;25.314;2023-03-23T00:15:41;96934.59;;;6.00;100.00
42771;BME280;28426;42.872;25.314;2023-03-23T00:18:12;96938.63;;;6.04;100.00
42771;BME280;28426;42.872;25.314;2023-03-23T00:20:49;96938.31;;;6.07;100.00
42771;BME280;28426;42.872;25.314;2023-03-23T00:23:22;96945.25;;;6.08;100.00
42771;BME280;28426;42.872;25.314;2023-03-23T00:25:55;96936.66;;;6.06;100.00
42771;BME280;28426;42.872;25.314;2023-03-23T00:28:27;96940.25;;;5.97;99.12
42771;BME280;28426;42.872;25.314;2023-03-23T00:31:02;96929.25;;;5.83;97.47
42771;BME280;28426;42.872;25.314;2023-03-23T00:33:36;96931.03;;;5.74;98.85
42771;BME280;28426;42.872;25.314;2023-03-23T00:36:09;96935.81;;;5.71;100.00
42771;BME280;28426;42.872;25.314;2023-03-23T00:38:41;96929.38;;;5.73;100.00
42771;BME280;28426;42.872;25.314;2023-03-23T00:41:12;96913.81;;;5.70;100.00
42771;BME280;28426;42.872;25.314;2023-03-23T00:43:43;96930.06;;;5.84;100.00
42771;BME280;28426;42.872;25.314;2023-03-23T00:46:18;96931.75;;;5.93;100.00
42771;BME280;28426;42.872;25.314;2023-03-23T00:48:50;96914.38;;;5.91;100.00
42771;BME280;28426;42.872;25.314;2023-03-23T00:51:21;96923.34;;;5.98;100.00
42771;BME280;28426;42.872;25.314;2023-03-23T00:53:52;96898.97;;;5.86;100.00
42771;BME280;28426;42.872;25.314;2023-03-23T00:56:22;96923.34;;;5.98;100.00
42771;BME280;28426;42.872;25.314;2023-03-23T00:58:54;96918.22;;;5.96;100.00
42771;BME280;28426;42.872;25.314;2023-03-23T01:01:28;96926.16;;;5.96;100.00
42771;BME280;28426;42.872;25.314;2023-03-23T01:03:59;96909.44;;;5.96;100.00
42771;BME280;28426;42.872;25.314;2023-03-23T01:06:32;96919.06;;;5.97;100.00
42771;BME280;28426;42.872;25.314;2023-03-23T01:09:07;96925.81;;;5.91;100.00
42771;BME280;28426;42.872;25.314;2023-03-23T01:11:39;96928.56;;;5.81;99.24
42771;BME280;28426;42.872;25.314;2023-03-23T01:14:10;96925.53;;;5.68;98.97
42771;BME280;28426;42.872;25.314;2023-03-23T01:16:45;96926.50;;;5.58;100.00
42771;BME280;28426;42.872;25.314;2023-03-23T01:19:16;96898.00;;;5.52;100.00
42771;BME280;28426;42.872;25.314;2023-03-23T01:21:47;96919.19;;;5.87;100.00
42771;BME280;28426;42.872;25.314;2023-03-23T01:24:18;96909.06;;;5.91;100.00
42771;BME280;28426;42.872;25.314;2023-03-23T01:26:49;96924.16;;;5.90;100.00
42771;BME280;28426;42.872;25.314;2023-03-23T01:29:20;96930.41;;;5.81;100.00
42771;BME280;28426;42.872;25.314;2023-03-23T01:31:53;96908.13;;;5.57;100.00
42771;BME280;28426;42.872;25.314;2023-03-23T01:34:24;96929.56;;;5.80;100.00
42771;BME280;28426;42.872;25.314;2023-03-23T01:36:55;96930.94;;;5.93;100.00
42771;BME280;28426;42.872;25.314;2023-03-23T01:39:26;96921.75;;;6.05;100.00
42771;BME280;28426;42.872;25.314;2023-03-23T01:41:57;96926.09;;;6.14;100.00
42771;BME280;28426;42.872;25.314;2023-03-23T01:47:32;96934.25;;;6.46;100.00
42771;BME280;28426;42.872;25.314;2023-03-23T01:50:04;96915.88;;;6.53;100.00
42771;BME280;28426;42.872;25.314;2023-03-23T01:52:35;96924.53;;;6.63;100.00
42771;BME280;28426;42.872;25.314;2023-03-23T01:55:08;96918.88;;;6.66;100.00
42771;BME280;28426;42.872;25.314;2023-03-23T01:57:39;96930.50;;;6.82;100.00
42771;BME280;28426;42.872;25.314;2023-03-23T02:00:11;96935.81;;;6.90;100.00
42771;BME280;28426;42.872;25.314;2023-03-23T02:02:54;96936.78;;;6.98;100.00
42771;BME280;28426;42.872;25.314;2023-03-23T02:05:29;96932.16;;;7.00;100.00
42771;BME280;28426;42.872;25.314;2023-03-23T02:08:10;96933.81;;;7.09;100.00
42771;BME280;28426;42.872;25.314;2023-03-23T02:10:43;96936.78;;;7.14;100.00
42771;BME280;28426;42.872;25.314;2023-03-23T02:13:18;96931.81;;;7.11;100.00
42771;BME280;28426;42.872;25.314;2023-03-23T02:15:58;96932.44;;;7.22;100.00
42771;BME280;28426;42.872;25.314;2023-03-23T02:18:50;96936.44;;;7.26;99.99
42771;BME280;28426;42.872;25.314;2023-03-23T02:24:49;96921.50;;;7.25;98.93
42771;BME280;28426;42.872;25.314;2023-03-23T02:30:43;96945.06;;;7.36;98.66
42771;BME280;28426;42.872;25.314;2023-03-23T02:33:46;96936.44;;;7.34;98.40
42771;BME280;28426;42.872;25.314;2023-03-23T02:36:24;96946.72;;;7.37;97.99
42771;BME280;28426;42.872;25.314;2023-03-23T02:39:05;96947.72;;;7.44;98.00
42771;BME280;28426;42.872;25.314;2023-03-23T02:41:42;96951.00;;;7.46;97.38
42771;BME280;28426;42.872;25.314;2023-03-23T02:44:14;96956.00;;;7.50;97.13
42771;BME280;28426;42.872;25.314;2023-03-23T02:46:46;96959.47;;;7.50;96.93
42771;BME280;28426;42.872;25.314;2023-03-23T02:49:22;96955.16;;;7.49;96.58
42771;BME280;28426;42.872;25.314;2023-03-23T02:51:56;96960.94;;;7.53;96.28
42771;BME280;28426;42.872;25.314;2023-03-23T02:54:29;96961.78;;;7.53;96.26
42771;BME280;28426;42.872;25.314;2023-03-23T02:57:01;96958.97;;;7.55;95.90
42771;BME280;28426;42.872;25.314;2023-03-23T02:59:32;96965.28;;;7.54;95.63
42771;BME280;28426;42.872;25.314;2023-03-23T03:02:09;96967.75;;;7.55;95.09
42771;BME280;28426;42.872;25.314;2023-03-23T03:04:48;96969.75;;;7.53;95.04
42771;BME280;28426;42.872;25.314;2023-03-23T03:07:32;96962.94;;;7.51;94.77
42771;BME280;28426;42.872;25.314;2023-03-23T03:10:10;96974.22;;;7.53;94.72
42771;BME280;28426;42.872;25.314;2023-03-23T03:12:52;96974.06;;;7.54;94.59
42771;BME280;28426;42.872;25.314;2023-03-23T03:15:29;96962.47;;;7.47;94.19
42771;BME280;28426;42.872;25.314;2023-03-23T03:18:08;96942.09;;;7.31;94.08
42771;BME280;28426;42.872;25.314;2023-03-23T03:20:45;96978.03;;;7.50;94.18
42771;BME280;28426;42.872;25.314;2023-03-23T03:23:21;96977.22;;;7.50;93.89
42771;BME280;28426;42.872;25.314;2023-03-23T03:25:56;96983.72;;;7.47;93.94
42771;BME280;28426;42.872;25.314;2023-03-23T03:28:39;96984.19;;;7.51;93.99
42771;BME280;28426;42.872;25.314;2023-03-23T03:31:12;96993.81;;;7.52;93.61
42771;BME280;28426;42.872;25.314;2023-03-23T03:33:44;96993.81;;;7.52;93.72
42771;BME280;28426;42.872;25.314;2023-03-23T03:36:21;96997.31;;;7.52;93.70
42771;BME280;28426;42.872;25.314;2023-03-23T03:38:53;96988.50;;;7.52;93.33
42771;BME280;28426;42.872;25.314;2023-03-23T03:41:25;96993.97;;;7.50;93.50
42771;BME280;28426;42.872;25.314;2023-03-23T03:43:55;96986.69;;;7.44;93.44
42771;BME280;28426;42.872;25.314;2023-03-23T03:46:27;96982.53;;;7.50;92.98
42771;BME280;28426;42.872;25.314;2023-03-23T03:48:59;96999.13;;;7.52;93.44
42771;BME280;28426;42.872;25.314;2023-03-23T03:51:35;96996.47;;;7.52;93.15
42771;BME280;28426;42.872;25.314;2023-03-23T03:54:10;96994.13;;;7.49;92.62
42771;BME280;28426;42.872;25.314;2023-03-23T03:56:41;96993.81;;;7.52;93.13
42771;BME280;28426;42.872;25.314;2023-03-23T03:59:33;97000.13;;;7.51;92.73
42771;BME280;28426;42.872;25.314;2023-03-23T04:02:24;97003.78;;;7.50;92.56
42771;BME280;28426;42.872;25.314;2023-03-23T04:04:55;97004.59;;;7.50;92.48
42771;BME280;28426;42.872;25.314;2023-03-23T04:07:29;96988.19;;;7.38;92.40
42771;BME280;28426;42.872;25.314;2023-03-23T04:10:07;97006.13;;;7.44;92.07
42771;BME280;28426;42.872;25.314;2023-03-23T04:12:59;97006.13;;;7.44;92.21
42771;BME280;28426;42.872;25.314;2023-03-23T04:15:34;97004.44;;;7.43;92.41
42771;BME280;28426;42.872;25.314;2023-03-23T04:18:27;97007.44;;;7.40;92.42
42771;BME280;28426;42.872;25.314;2023-03-23T04:21:01;97008.09;;;7.42;92.35
42771;BME280;28426;42.872;25.314;2023-03-23T04:23:36;97012.56;;;7.42;92.62
42771;BME280;28426;42.872;25.314;2023-03-23T04:26:07;97008.41;;;7.39;92.16
42771;BME280;28426;42.872;25.314;2023-03-23T04:28:44;97019.72;;;7.41;92.37
42771;BME280;28426;42.872;25.314;2023-03-23T04:31:44;97010.75;;;7.34;92.50
42771;BME280;28426;42.872;25.314;2023-03-23T04:34:27;97019.88;;;7.40;92.21
42771;BME280;28426;42.872;25.314;2023-03-23T04:37:01;97015.72;;;7.37;92.32
42771;BME280;28426;42.872;25.314;2023-03-23T04:39:35;97020.88;;;7.39;92.43
42771;BME280;28426;42.872;25.314;2023-03-23T04:42:08;97014.91;;;7.37;92.40
42771;BME280;28426;42.872;25.314;2023-03-23T04:45:12;97004.47;;;7.27;92.41
42771;BME280;28426;42.872;25.314;2023-03-23T04:47:43;97023.84;;;7.36;92.36
42771;BME280;28426;42.872;25.314;2023-03-23T04:50:28;97016.41;;;7.31;92.46
42771;BME280;28426;42.872;25.314;2023-03-23T04:53:08;97024.03;;;7.34;92.31
42771;BME280;28426;42.872;25.314;2023-03-23T04:55:44;97016.22;;;7.32;92.59
42771;BME280;28426;42.872;25.314;2023-03-23T04:58:18;97025.03;;;7.33;91.93
42771;BME280;28426;42.872;25.314;2023-03-23T05:01:09;97025.03;;;7.33;92.27
42771;BME280;28426;42.872;25.314;2023-03-23T05:03:51;97025.34;;;7.30;92.48
42771;BME280;28426;42.872;25.314;2023-03-23T05:06:22;97027.03;;;7.31;92.05
42771;BME280;28426;42.872;25.314;2023-03-23T05:08:58;97034.31;;;7.29;92.04
42771;BME280;28426;42.872;25.314;2023-03-23T05:11:33;97033.47;;;7.28;92.25
42771;BME280;28426;42.872;25.314;2023-03-23T05:14:04;97038.13;;;7.26;92.10
42771;BME280;28426;42.872;25.314;2023-03-23T05:16:36;97035.00;;;7.23;92.00
42771;BME280;28426;42.872;25.314;2023-03-23T05:19:08;97035.31;;;7.28;92.31
42771;BME280;28426;42.872;25.314;2023-03-23T05:21:39;97038.78;;;7.28;92.60
42771;BME280;28426;42.872;25.314;2023-03-23T05:24:11;97036.47;;;7.25;92.24
42771;BME280;28426;42.872;25.314;2023-03-23T05:26:45;97046.75;;;7.28;92.24
42771;BME280;28426;42.872;25.314;2023-03-23T05:29:26;97054.91;;;7.27;92.02
42771;BME280;28426;42.872;25.314;2023-03-23T05:32:00;97053.91;;;7.28;92.48
42771;BME280;28426;42.872;25.314;2023-03-23T05:34:34;97050.56;;;7.26;92.26
42771;BME280;28426;42.872;25.314;2023-03-23T05:37:05;97052.41;;;7.25;92.56
42771;BME280;28426;42.872;25.314;2023-03-23T05:39:56;97062.34;;;7.23;92.71
42771;BME280;28426;42.872;25.314;2023-03-23T05:42:54;97057.56;;;7.27;92.53
42771;BME280;28426;42.872;25.314;2023-03-23T05:45:35;97056.72;;;7.26;92.53
42771;BME280;28426;42.872;25.314;2023-03-23T05:48:06;97054.88;;;7.18;92.72
42771;BME280;28426;42.872;25.314;2023-03-23T05:50:37;97073.47;;;7.27;92.39
42771;BME280;28426;42.872;25.314;2023-03-23T05:53:08;97069.50;;;7.23;92.54
42771;BME280;28426;42.872;25.314;2023-03-23T05:55:40;97072.16;;;7.23;92.50
42771;BME280;28426;42.872;25.314;2023-03-23T05:58:23;97078.94;;;7.25;92.55
42771;BME280;28426;42.872;25.314;2023-03-23T06:00:55;97081.44;;;7.27;92.68
42771;BME280;28426;42.872;25.314;2023-03-23T06:03:29;97081.09;;;7.30;92.58
42771;BME280;28426;42.872;25.314;2023-03-23T06:06:08;97094.34;;;7.30;92.80
42771;BME280;28426;42.872;25.314;2023-03-23T06:08:51;97090.91;;;7.29;92.56
42771;BME280;28426;42.872;25.314;2023-03-23T06:11:35;97094.34;;;7.30;92.62
42771;BME280;28426;42.872;25.314;2023-03-23T06:14:28;97094.34;;;7.30;92.62
42771;BME280;28426;42.872;25.314;2023-03-23T06:17:01;97101.50;;;7.29;92.70
42771;BME280;28426;42.872;25.314;2023-03-23T06:19:31;97095.53;;;7.27;92.66
42771;BME280;28426;42.872;25.314;2023-03-23T06:22:08;97099.50;;;7.31;92.84
42771;BME280;28426;42.872;25.314;2023-03-23T06:24:58;97097.19;;;7.28;92.61
42771;BME280;28426;42.872;25.314;2023-03-23T06:27:41;97103.00;;;7.32;92.61
42771;BME280;28426;42.872;25.314;2023-03-23T06:30:16;97106.31;;;7.34;92.38
42771;BME280;28426;42.872;25.314;2023-03-23T06:32:47;97108.97;;;7.34;92.29
42771;BME280;28426;42.872;25.314;2023-03-23T06:35:31;97097.19;;;7.28;92.36
42771;BME280;28426;42.872;25.314;2023-03-23T06:38:15;97109.28;;;7.39;92.57
42771;BME280;28426;42.872;25.314;2023-03-23T06:40:53;97103.19;;;7.39;92.47
42771;BME280;28426;42.872;25.314;2023-03-23T06:43:30;97115.94;;;7.43;92.19
42771;BME280;28426;42.872;25.314;2023-03-23T06:46:16;97118.44;;;7.45;92.22
42771;BME280;28426;42.872;25.314;2023-03-23T06:49:13;97118.28;;;7.46;92.04
42771;BME280;28426;42.872;25.314;2023-03-23T06:51:51;97103.03;;;7.40;92.27
42771;BME280;28426;42.872;25.314;2023-03-23T06:54:25;97121.09;;;7.53;91.88
42771;BME280;28426;42.872;25.314;2023-03-23T06:56:56;97110.97;;;7.49;92.15
42771;BME280;28426;42.872;25.314;2023-03-23T06:59:28;97123.28;;;7.58;91.84
42771;BME280;28426;42.872;25.314;2023-03-23T07:02:02;97126.41;;;7.62;92.11
42771;BME280;28426;42.872;25.314;2023-03-23T07:04:34;97114.63;;;7.56;91.93
42771;BME280;28426;42.872;25.314;2023-03-23T07:07:11;97119.44;;;7.69;92.10
42771;BME280;28426;42.872;25.314;2023-03-23T07:09:51;97121.75;;;7.72;91.97
42771;BME280;28426;42.872;25.314;2023-03-23T07:12:24;97129.91;;;7.79;91.95
42771;BME280;28426;42.872;25.314;2023-03-23T07:14:56;97124.91;;;7.84;91.86
42771;BME280;28426;42.872;25.314;2023-03-23T07:17:32;97127.25;;;7.87;91.85
42771;BME280;28426;42.872;25.314;2023-03-23T07:20:12;97126.91;;;7.90;91.62
42771;BME280;28426;42.872;25.314;2023-03-23T07:22:43;97129.91;;;7.95;91.70
42771;BME280;28426;42.872;25.314;2023-03-23T07:25:30;97133.19;;;7.97;91.32
42771;BME280;28426;42.872;25.314;2023-03-23T07:28:03;97133.38;;;8.04;91.46
42771;BME280;28426;42.872;25.314;2023-03-23T07:30:34;97142.81;;;8.07;90.88
42771;BME280;28426;42.872;25.314;2023-03-23T07:33:08;97135.69;;;8.07;90.67
42771;BME280;28426;42.872;25.314;2023-03-23T07:35:40;97142.50;;;8.10;90.81
42771;BME280;28426;42.872;25.314;2023-03-23T07:38:15;97146.66;;;8.13;90.68
42771;BME280;28426;42.872;25.314;2023-03-23T07:40:49;97140.00;;;8.08;90.63
42771;BME280;28426;42.872;25.314;2023-03-23T07:43:20;97142.66;;;8.17;90.40
42771;BME280;28426;42.872;25.314;2023-03-23T07:45:52;97152.13;;;8.19;90.54
42771;BME280;28426;42.872;25.314;2023-03-23T07:48:30;97155.25;;;8.23;90.40
42771;BME280;28426;42.872;25.314;2023-03-23T07:51:01;97155.94;;;8.25;90.16
42771;BME280;28426;42.872;25.314;2023-03-23T07:53:33;97149.63;;;8.26;90.14
42771;BME280;28426;42.872;25.314;2023-03-23T07:56:18;97146.94;;;8.26;90.12
42771;BME280;28426;42.872;25.314;2023-03-23T07:59:07;97159.41;;;8.25;89.44
42771;BME280;28426;42.872;25.314;2023-03-23T08:01:40;97167.56;;;8.24;89.13
42771;BME280;28426;42.872;25.314;2023-03-23T08:04:32;97150.47;;;8.10;89.35
42771;BME280;28426;42.872;25.314;2023-03-23T08:07:19;97165.72;;;8.16;89.51
42771;BME280;28426;42.872;25.314;2023-03-23T08:09:50;97139.19;;;8.00;89.35
42771;BME280;28426;42.872;25.314;2023-03-23T08:12:41;97172.06;;;8.23;89.44
42771;BME280;28426;42.872;25.314;2023-03-23T08:15:31;97172.53;;;8.27;89.60
42771;BME280;28426;42.872;25.314;2023-03-23T08:18:05;97170.72;;;8.28;89.41
42771;BME280;28426;42.872;25.314;2023-03-23T08:20:57;97175.34;;;8.34;89.25
42771;BME280;28426;42.872;25.314;2023-03-23T08:23:45;97163.91;;;8.33;89.25
42771;BME280;28426;42.872;25.314;2023-03-23T08:26:16;97179.16;;;8.40;89.02
42771;BME280;28426;42.872;25.314;2023-03-23T08:28:53;97172.69;;;8.42;88.54
42771;BME280;28426;42.872;25.314;2023-03-23T08:31:50;97178.69;;;8.44;88.58
42771;BME280;28426;42.872;25.314;2023-03-23T08:34:40;97171.88;;;8.42;88.37
42771;BME280;28426;42.872;25.314;2023-03-23T08:37:32;97171.34;;;8.46;88.30
42771;BME280;28426;42.872;25.314;2023-03-23T08:40:26;97167.84;;;8.46;88.40
42771;BME280;28426;42.872;25.314;2023-03-23T08:43:16;97172.03;;;8.48;87.92
42771;BME280;28426;42.872;25.314;2023-03-23T08:46:12;97174.47;;;8.50;87.64
42771;BME280;28426;42.872;25.314;2023-03-23T08:49:03;97178.66;;;8.53;88.14
42771;BME280;28426;42.872;25.314;2023-03-23T08:51:34;97174.31;;;8.51;87.72
42771;BME280;28426;42.872;25.314;2023-03-23T08:54:15;97164.84;;;8.49;87.37
42771;BME280;28426;42.872;25.314;2023-03-23T08:57:00;97176.00;;;8.53;87.31
42771;BME280;28426;42.872;25.314;2023-03-23T08:59:45;97176.69;;;8.55;87.55
42771;BME280;28426;42.872;25.314;2023-03-23T09:02:21;97178.16;;;8.57;87.57
42771;BME280;28426;42.872;25.314;2023-03-23T09:05:01;97171.03;;;8.58;87.35
42771;BME280;28426;42.872;25.314;2023-03-23T09:08:01;97153.75;;;8.54;87.88
42771;BME280;28426;42.872;25.314;2023-03-23T09:10:35;97172.50;;;8.69;88.15
42771;BME280;28426;42.872;25.314;2023-03-23T09:13:06;97166.78;;;8.80;88.08
42771;BME280;28426;42.872;25.314;2023-03-23T09:15:37;97180.91;;;8.89;87.86
42771;BME280;28426;42.872;25.314;2023-03-23T09:18:21;97176.88;;;8.93;86.95
42771;BME280;28426;42.872;25.314;2023-03-23T09:20:53;97178.00;;;8.99;86.81
42771;BME280;28426;42.872;25.314;2023-03-23T09:23:25;97173.84;;;9.05;86.26
42771;BME280;28426;42.872;25.314;2023-03-23T09:25:59;97174.47;;;9.07;85.69
42771;BME280;28426;42.872;25.314;2023-03-23T09:28:30;97176.16;;;9.08;85.51
42771;BME280;28426;42.872;25.314;2023-03-23T09:31:02;97180.31;;;9.10;85.61
42771;BME280;28426;42.872;25.314;2023-03-23T09:33:33;97162.69;;;9.09;85.52
42771;BME280;28426;42.872;25.314;2023-03-23T09:36:13;97179.72;;;9.23;85.53
42771;BME280;28426;42.872;25.314;2023-03-23T09:38:45;97173.34;;;9.33;85.77
42771;BME280;28426;42.872;25.314;2023-03-23T09:41:39;97177.63;;;9.42;85.89
42771;BME280;28426;42.872;25.314;2023-03-23T09:44:21;97176.22;;;9.54;85.59
42771;BME280;28426;42.872;25.314;2023-03-23T09:46:58;97165.34;;;9.64;84.89
42771;BME280;28426;42.872;25.314;2023-03-23T09:49:35;97157.09;;;9.74;84.87
42771;BME280;28426;42.872;25.314;2023-03-23T09:52:11;97162.00;;;9.86;84.80
42771;BME280;28426;42.872;25.314;2023-03-23T09:54:45;97169.78;;;9.96;84.15
42771;BME280;28426;42.872;25.314;2023-03-23T09:57:26;97162.81;;;10.10;84.25
42771;BME280;28426;42.872;25.314;2023-03-23T10:00:02;97159.34;;;10.24;84.07
42771;BME280;28426;42.872;25.314;2023-03-23T10:02:46;97162.22;;;10.38;82.48
42771;BME280;28426;42.872;25.314;2023-03-23T10:05:29;97156.81;;;10.46;81.58
42771;BME280;28426;42.872;25.314;2023-03-23T10:08:05;97158.38;;;10.55;81.68
42771;BME280;28426;42.872;25.314;2023-03-23T10:10:48;97154.63;;;10.65;80.99
42771;BME280;28426;42.872;25.314;2023-03-23T10:13:34;97150.75;;;10.82;80.67
42771;BME280;28426;42.872;25.314;2023-03-23T10:16:08;97159.94;;;10.95;79.54
42771;BME280;28426;42.872;25.314;2023-03-23T10:18:58;97157.78;;;11.05;79.27
42771;BME280;28426;42.872;25.314;2023-03-23T10:21:36;97155.22;;;11.12;77.80
42771;BME280;28426;42.872;25.314;2023-03-23T10:24:09;97156.22;;;11.11;76.33
42771;BME280;28426;42.872;25.314;2023-03-23T10:26:46;97166.28;;;11.09;76.10
42771;BME280;28426;42.872;25.314;2023-03-23T10:29:21;97157.16;;;11.03;75.64
42771;BME280;28426;42.872;25.314;2023-03-23T10:31:56;97161.22;;;10.99;75.76
42771;BME280;28426;42.872;25.314;2023-03-23T10:34:32;97159.94;;;10.95;75.28
42771;BME280;28426;42.872;25.314;2023-03-23T10:37:10;97155.63;;;10.94;76.06
42771;BME280;28426;42.872;25.314;2023-03-23T10:39:47;97152.28;;;10.92;75.92
42771;BME280;28426;42.872;25.314;2023-03-23T10:42:24;97154.16;;;10.91;75.93
42771;BME280;28426;42.872;25.314;2023-03-23T10:44:57;97150.66;;;10.91;75.74
42771;BME280;28426;42.872;25.314;2023-03-23T10:47:29;97144.50;;;10.90;75.90
42771;BME280;28426;42.872;25.314;2023-03-23T10:50:05;97137.47;;;10.89;75.65
42771;BME280;28426;42.872;25.314;2023-03-23T10:52:38;97151.03;;;10.88;75.22
42771;BME280;28426;42.872;25.314;2023-03-23T10:55:11;97141.34;;;10.86;75.04
42771;BME280;28426;42.872;25.314;2023-03-23T10:57:44;97138.50;;;10.88;74.59
42771;BME280;28426;42.872;25.314;2023-03-23T11:00:19;97139.97;;;10.91;74.61
42771;BME280;28426;42.872;25.314;2023-03-23T11:02:57;97139.97;;;10.91;74.10
42771;BME280;28426;42.872;25.314;2023-03-23T11:05:37;97130.31;;;10.90;73.98
42771;BME280;28426;42.872;25.314;2023-03-23T11:08:12;97134.00;;;10.89;73.75
42771;BME280;28426;42.872;25.314;2023-03-23T11:10:49;97131.69;;;10.85;73.44
42771;BME280;28426;42.872;25.314;2023-03-23T11:13:22;97122.41;;;10.81;73.31
42771;BME280;28426;42.872;25.314;2023-03-23T11:15:54;97121.78;;;10.79;73.10
42771;BME280;28426;42.872;25.314;2023-03-23T11:18:27;97124.81;;;10.76;73.16
42771;BME280;28426;42.872;25.314;2023-03-23T11:21:08;97117.63;;;10.77;73.34
42771;BME280;28426;42.872;25.314;2023-03-23T11:23:43;97117.06;;;10.81;73.75
42771;BME280;28426;42.872;25.314;2023-03-23T11:26:36;97110.59;;;10.91;74.02
42771;BME280;28426;42.872;25.314;2023-03-23T11:29:24;97112.78;;;11.02;73.34
42771;BME280;28426;42.872;25.314;2023-03-23T11:32:03;97102.63;;;11.12;72.81
42771;BME280;28426;42.872;25.314;2023-03-23T11:34:40;97092.03;;;11.19;71.55
42771;BME280;28426;42.872;25.314;2023-03-23T11:37:19;97097.25;;;11.28;71.47
42771;BME280;28426;42.872;25.314;2023-03-23T11:39:55;97086.44;;;11.36;70.99
42771;BME280;28426;42.872;25.314;2023-03-23T11:42:38;97084.88;;;11.42;70.24
42771;BME280;28426;42.872;25.314;2023-03-23T11:45:20;97076.63;;;11.43;69.52
42771;BME280;28426;42.872;25.314;2023-03-23T11:48:01;97084.72;;;11.50;68.93
42771;BME280;28426;42.872;25.314;2023-03-23T11:50:44;97080.22;;;11.50;69.00
42771;BME280;28426;42.872;25.314;2023-03-23T11:53:24;97086.16;;;11.52;68.70
42771;BME280;28426;42.872;25.314;2023-03-23T11:56:07;97075.47;;;11.52;68.41
42771;BME280;28426;42.872;25.314;2023-03-23T11:58:39;97081.84;;;11.51;68.32
42771;BME280;28426;42.872;25.314;2023-03-23T12:01:19;97085.38;;;11.52;68.12
42771;BME280;28426;42.872;25.314;2023-03-23T12:04:03;97082.03;;;11.50;68.22
42771;BME280;28426;42.872;25.314;2023-03-23T12:06:45;97079.59;;;11.48;67.92
42771;BME280;28426;42.872;25.314;2023-03-23T12:09:30;97084.09;;;11.48;67.53
42771;BME280;28426;42.872;25.314;2023-03-23T12:12:14;97074.25;;;11.48;67.37
42771;BME280;28426;42.872;25.314;2023-03-23T12:14:54;97075.47;;;11.52;67.49
42771;BME280;28426;42.872;25.314;2023-03-23T12:17:36;97077.78;;;11.56;66.82
42771;BME280;28426;42.872;25.314;2023-03-23T12:20:21;97082.94;;;11.57;66.89
42771;BME280;28426;42.872;25.314;2023-03-23T12:23:17;97069.38;;;11.59;66.54
42771;BME280;28426;42.872;25.314;2023-03-23T12:26:18;97066.91;;;11.57;65.92
42771;BME280;28426;42.872;25.314;2023-03-23T12:32:23;97074.47;;;11.54;66.23
42771;BME280;28426;42.872;25.314;2023-03-23T12:35:04;97079.19;;;11.51;65.60
42771;BME280;28426;42.872;25.314;2023-03-23T12:37:46;97078.75;;;11.48;65.08
42771;BME280;28426;42.872;25.314;2023-03-23T12:40:32;97073.97;;;11.43;65.17
42771;BME280;28426;42.872;25.314;2023-03-23T12:43:20;97080.50;;;11.41;65.22
42771;BME280;28426;42.872;25.314;2023-03-23T12:46:02;97085.41;;;11.37;65.11
42771;BME280;28426;42.872;25.314;2023-03-23T12:48:40;97075.28;;;11.32;65.15
42771;BME280;28426;42.872;25.314;2023-03-23T12:51:19;97078.38;;;11.29;65.10
42771;BME280;28426;42.872;25.314;2023-03-23T12:53:56;97076.91;;;11.27;65.10
42771;BME280;28426;42.872;25.314;2023-03-23T12:56:33;97072.56;;;11.25;64.85
42771;BME280;28426;42.872;25.314;2023-03-23T12:59:13;97079.38;;;11.28;65.14
42771;BME280;28426;42.872;25.314;2023-03-23T13:01:52;97076.31;;;11.31;65.57
42771;BME280;28426;42.872;25.314;2023-03-23T13:04:30;97075.56;;;11.37;65.69
42771;BME280;28426;42.872;25.314;2023-03-23T13:07:06;97074.97;;;11.42;65.77
42771;BME280;28426;42.872;25.314;2023-03-23T13:09:48;97069.69;;;11.49;65.53
42771;BME280;28426;42.872;25.314;2023-03-23T13:12:21;97060.66;;;11.50;65.84
42771;BME280;28426;42.872;25.314;2023-03-23T13:15:04;97068.53;;;11.58;64.77
42771;BME280;28426;42.872;25.314;2023-03-23T13:17:39;97062.81;;;11.61;64.25
42771;BME280;28426;42.872;25.314;2023-03-23T13:23:09;97067.34;;;11.61;63.85
42771;BME280;28426;42.872;25.314;2023-03-23T13:25:51;97069.19;;;11.60;63.58
42771;BME280;28426;42.872;25.314;2023-03-23T13:28:26;97061.19;;;11.60;64.09
42771;BME280;28426;42.872;25.314;2023-03-23T13:31:02;97066.53;;;11.60;64.14
42771;BME280;28426;42.872;25.314;2023-03-23T13:33:35;97067.78;;;11.64;64.36
42771;BME280;28426;42.872;25.314;2023-03-23T13:36:10;97069.88;;;11.69;64.50
42771;BME280;28426;42.872;25.314;2023-03-23T13:38:46;97070.31;;;11.73;64.54
42771;BME280;28426;42.872;25.314;2023-03-23T13:41:19;97067.25;;;11.76;64.43
42771;BME280;28426;42.872;25.314;2023-03-23T13:43:51;97062.34;;;11.80;64.59
42771;BME280;28426;42.872;25.314;2023-03-23T13:46:29;97067.13;;;11.84;64.55
42771;BME280;28426;42.872;25.314;2023-03-23T13:49:15;97063.03;;;11.88;63.83
42771;BME280;28426;42.872;25.314;2023-03-23T13:51:58;97058.97;;;11.93;63.26
42771;BME280;28426;42.872;25.314;2023-03-23T13:54:37;97056.91;;;11.95;63.20
42771;BME280;28426;42.872;25.314;2023-03-23T13:57:33;97056.53;;;11.98;63.20
42771;BME280;28426;42.872;25.314;2023-03-23T14:03:17;97063.50;;;11.99;62.93
42771;BME280;28426;42.872;25.314;2023-03-23T14:05:51;97055.50;;;11.99;62.92
42771;BME280;28426;42.872;25.314;2023-03-23T14:08:24;97057.13;;;12.00;62.33